sensor_id;sensor_type;location;lat;lon;timestamp;P1;durP1;ratioP1;P2;durP2;ratioP2
63005;SDS011;53704;52.532;6.426;2024-03-02T00:01:03;3.53;;;2.70;;
63005;SDS011;53704;52.532;6.426;2024-03-02T00:03:28;5.40;;;2.78;;
63005;SDS011;53704;52.532;6.426;2024-03-02T00:05:54;2.40;;;2.20;;
63005;SDS011;53704;52.532;6.426;2024-03-02T00:08:23;2.47;;;2.25;;
63005;SDS011;53704;52.532;6.426;2024-03-02T00:10:56;2.42;;;2.33;;
63005;SDS011;53704;52.532;6.426;2024-03-02T00:13:23;2.15;;;2.05;;
63005;SDS011;53704;52.532;6.426;2024-03-02T00:15:53;5.65;;;2.08;;
63005;SDS011;53704;52.532;6.426;2024-03-02T00:18:20;2.75;;;2.55;;
63005;SDS011;53704;52.532;6.426;2024-03-02T00:20:59;2.80;;;2.40;;
63005;SDS011;53704;52.532;6.426;2024-03-02T00:23:31;2.20;;;2.10;;
63005;SDS011;53704;52.532;6.426;2024-03-02T00:25:57;3.38;;;2.78;;
63005;SDS011;53704;52.532;6.426;2024-03-02T00:28:29;3.78;;;2.35;;
63005;SDS011;53704;52.532;6.426;2024-03-02T00:31:05;3.15;;;2.45;;
63005;SDS011;53704;52.532;6.426;2024-03-02T00:33:32;2.33;;;1.88;;
63005;SDS011;53704;52.532;6.426;2024-03-02T00:35:59;2.20;;;2.10;;
63005;SDS011;53704;52.532;6.426;2024-03-02T00:38:25;2.28;;;2.08;;
63005;SDS011;53704;52.532;6.426;2024-03-02T00:40:51;5.32;;;2.25;;
63005;SDS011;53704;52.532;6.426;2024-03-02T00:46:04;6.07;;;2.20;;
63005;SDS011;53704;52.532;6.426;2024-03-02T00:48:30;3.80;;;1.92;;
63005;SDS011;53704;52.532;6.426;2024-03-02T00:50:56;1.65;;;1.55;;
63005;SDS011;53704;52.532;6.426;2024-03-02T00:53:22;2.03;;;1.83;;
63005;SDS011;53704;52.532;6.426;2024-03-02T00:55:51;3.00;;;2.00;;
63005;SDS011;53704;52.532;6.426;2024-03-02T00:58:16;1.75;;;1.65;;
63005;SDS011;53704;52.532;6.426;2024-03-02T01:00:41;2.90;;;2.10;;
63005;SDS011;53704;52.532;6.426;2024-03-02T01:03:07;2.20;;;1.90;;
63005;SDS011;53704;52.532;6.426;2024-03-02T01:05:32;1.85;;;1.75;;
63005;SDS011;53704;52.532;6.426;2024-03-02T01:07:58;2.30;;;2.15;;
63005;SDS011;53704;52.532;6.426;2024-03-02T01:10:23;1.85;;;1.48;;
63005;SDS011;53704;52.532;6.426;2024-03-02T01:12:50;1.98;;;1.88;;
63005;SDS011;53704;52.532;6.426;2024-03-02T01:15:16;1.90;;;1.80;;
63005;SDS011;53704;52.532;6.426;2024-03-02T01:17:42;1.70;;;1.60;;
63005;SDS011;53704;52.532;6.426;2024-03-02T01:20:08;1.88;;;1.77;;
63005;SDS011;53704;52.532;6.426;2024-03-02T01:22:34;1.58;;;1.48;;
63005;SDS011;53704;52.532;6.426;2024-03-02T01:25:00;1.77;;;1.67;;
63005;SDS011;53704;52.532;6.426;2024-03-02T01:27:26;1.95;;;1.77;;
63005;SDS011;53704;52.532;6.426;2024-03-02T01:29:52;6.93;;;1.92;;
63005;SDS011;53704;52.532;6.426;2024-03-02T01:32:17;3.10;;;1.70;;
63005;SDS011;53704;52.532;6.426;2024-03-02T01:34:43;2.47;;;1.80;;
63005;SDS011;53704;52.532;6.426;2024-03-02T01:37:08;1.63;;;1.52;;
63005;SDS011;53704;52.532;6.426;2024-03-02T01:39:35;1.65;;;1.50;;
63005;SDS011;53704;52.532;6.426;2024-03-02T01:42:00;2.20;;;2.10;;
63005;SDS011;53704;52.532;6.426;2024-03-02T01:44:26;2.63;;;2.35;;
63005;SDS011;53704;52.532;6.426;2024-03-02T01:46:52;1.52;;;1.42;;
63005;SDS011;53704;52.532;6.426;2024-03-02T01:49:17;1.75;;;1.48;;
63005;SDS011;53704;52.532;6.426;2024-03-02T01:51:43;2.65;;;1.70;;
63005;SDS011;53704;52.532;6.426;2024-03-02T01:54:09;2.50;;;1.60;;
63005;SDS011;53704;52.532;6.426;2024-03-02T01:56:34;1.90;;;1.80;;
63005;SDS011;53704;52.532;6.426;2024-03-02T01:59:00;2.05;;;1.55;;
63005;SDS011;53704;52.532;6.426;2024-03-02T02:01:26;2.35;;;1.80;;
63005;SDS011;53704;52.532;6.426;2024-03-02T02:03:51;2.35;;;1.40;;
63005;SDS011;53704;52.532;6.426;2024-03-02T02:06:17;1.65;;;1.55;;
63005;SDS011;53704;52.532;6.426;2024-03-02T02:08:42;3.97;;;1.80;;
63005;SDS011;53704;52.532;6.426;2024-03-02T02:11:08;2.08;;;1.85;;
63005;SDS011;53704;52.532;6.426;2024-03-02T02:13:33;2.08;;;1.60;;
63005;SDS011;53704;52.532;6.426;2024-03-02T02:16:08;1.75;;;1.60;;
63005;SDS011;53704;52.532;6.426;2024-03-02T02:18:34;2.40;;;1.73;;
63005;SDS011;53704;52.532;6.426;2024-03-02T02:21:00;1.77;;;1.67;;
63005;SDS011;53704;52.532;6.426;2024-03-02T02:23:26;1.63;;;1.50;;
63005;SDS011;53704;52.532;6.426;2024-03-02T02:25:51;1.88;;;1.60;;
63005;SDS011;53704;52.532;6.426;2024-03-02T02:28:17;7.30;;;2.08;;
63005;SDS011;53704;52.532;6.426;2024-03-02T02:30:42;1.88;;;1.77;;
63005;SDS011;53704;52.532;6.426;2024-03-02T02:33:08;4.65;;;1.73;;
63005;SDS011;53704;52.532;6.426;2024-03-02T02:35:34;2.97;;;1.80;;
63005;SDS011;53704;52.532;6.426;2024-03-02T02:38:00;1.90;;;1.65;;
63005;SDS011;53704;52.532;6.426;2024-03-02T02:40:26;1.85;;;1.70;;
63005;SDS011;53704;52.532;6.426;2024-03-02T02:42:51;1.88;;;1.50;;
63005;SDS011;53704;52.532;6.426;2024-03-02T02:45:17;3.13;;;1.90;;
63005;SDS011;53704;52.532;6.426;2024-03-02T02:47:42;1.77;;;1.67;;
63005;SDS011;53704;52.532;6.426;2024-03-02T02:50:08;2.65;;;1.60;;
63005;SDS011;53704;52.532;6.426;2024-03-02T02:52:35;4.70;;;1.60;;
63005;SDS011;53704;52.532;6.426;2024-03-02T02:55:02;2.60;;;1.42;;
63005;SDS011;53704;52.532;6.426;2024-03-02T02:57:29;1.40;;;1.30;;
63005;SDS011;53704;52.532;6.426;2024-03-02T02:59:56;3.03;;;1.88;;
63005;SDS011;53704;52.532;6.426;2024-03-02T03:02:22;1.33;;;1.25;;
63005;SDS011;53704;52.532;6.426;2024-03-02T03:04:47;1.98;;;1.48;;
63005;SDS011;53704;52.532;6.426;2024-03-02T03:07:13;4.35;;;1.25;;
63005;SDS011;53704;52.532;6.426;2024-03-02T03:09:38;5.85;;;1.80;;
63005;SDS011;53704;52.532;6.426;2024-03-02T03:12:04;4.13;;;1.58;;
63005;SDS011;53704;52.532;6.426;2024-03-02T03:14:29;2.85;;;1.42;;
63005;SDS011;53704;52.532;6.426;2024-03-02T03:16:55;2.42;;;2.13;;
63005;SDS011;53704;52.532;6.426;2024-03-02T03:19:20;2.47;;;1.58;;
63005;SDS011;53704;52.532;6.426;2024-03-02T03:21:46;3.35;;;1.60;;
63005;SDS011;53704;52.532;6.426;2024-03-02T03:24:11;1.75;;;1.30;;
63005;SDS011;53704;52.532;6.426;2024-03-02T03:26:37;4.15;;;1.80;;
63005;SDS011;53704;52.532;6.426;2024-03-02T03:29:02;3.08;;;1.50;;
63005;SDS011;53704;52.532;6.426;2024-03-02T03:31:28;1.38;;;1.20;;
63005;SDS011;53704;52.532;6.426;2024-03-02T03:33:54;5.20;;;1.10;;
63005;SDS011;53704;52.532;6.426;2024-03-02T03:36:20;2.60;;;1.52;;
63005;SDS011;53704;52.532;6.426;2024-03-02T03:38:45;1.80;;;1.20;;
63005;SDS011;53704;52.532;6.426;2024-03-02T03:41:10;3.40;;;1.30;;
63005;SDS011;53704;52.532;6.426;2024-03-02T03:43:36;0.80;;;0.80;;
63005;SDS011;53704;52.532;6.426;2024-03-02T03:46:01;1.08;;;0.98;;
63005;SDS011;53704;52.532;6.426;2024-03-02T03:48:27;1.95;;;1.00;;
63005;SDS011;53704;52.532;6.426;2024-03-02T03:50:55;5.55;;;1.88;;
63005;SDS011;53704;52.532;6.426;2024-03-02T03:53:21;1.85;;;0.93;;
63005;SDS011;53704;52.532;6.426;2024-03-02T03:55:47;2.85;;;1.10;;
63005;SDS011;53704;52.532;6.426;2024-03-02T03:58:14;2.42;;;1.25;;
63005;SDS011;53704;52.532;6.426;2024-03-02T04:00:41;1.10;;;1.00;;
63005;SDS011;53704;52.532;6.426;2024-03-02T04:03:07;1.17;;;1.02;;
63005;SDS011;53704;52.532;6.426;2024-03-02T04:05:33;2.35;;;0.75;;
63005;SDS011;53704;52.532;6.426;2024-03-02T04:07:58;4.63;;;1.20;;
63005;SDS011;53704;52.532;6.426;2024-03-02T04:10:23;1.38;;;0.70;;
63005;SDS011;53704;52.532;6.426;2024-03-02T04:12:49;0.73;;;0.73;;
63005;SDS011;53704;52.532;6.426;2024-03-02T04:15:15;1.77;;;0.85;;
63005;SDS011;53704;52.532;6.426;2024-03-02T04:17:41;3.03;;;1.15;;
63005;SDS011;53704;52.532;6.426;2024-03-02T04:20:06;0.88;;;0.82;;
63005;SDS011;53704;52.532;6.426;2024-03-02T04:22:32;0.63;;;0.60;;
63005;SDS011;53704;52.532;6.426;2024-03-02T04:24:59;2.45;;;1.05;;
63005;SDS011;53704;52.532;6.426;2024-03-02T04:27:25;2.90;;;0.80;;
63005;SDS011;53704;52.532;6.426;2024-03-02T04:29:51;2.70;;;0.70;;
63005;SDS011;53704;52.532;6.426;2024-03-02T04:32:16;0.40;;;0.40;;
63005;SDS011;53704;52.532;6.426;2024-03-02T04:34:42;0.45;;;0.40;;
63005;SDS011;53704;52.532;6.426;2024-03-02T04:37:08;4.75;;;0.63;;
63005;SDS011;53704;52.532;6.426;2024-03-02T04:39:34;0.47;;;0.47;;
63005;SDS011;53704;52.532;6.426;2024-03-02T04:42:00;0.68;;;0.30;;
63005;SDS011;53704;52.532;6.426;2024-03-02T04:44:26;2.72;;;0.77;;
63005;SDS011;53704;52.532;6.426;2024-03-02T04:46:51;0.85;;;0.43;;
63005;SDS011;53704;52.532;6.426;2024-03-02T04:49:17;1.77;;;0.60;;
63005;SDS011;53704;52.532;6.426;2024-03-02T04:51:42;0.65;;;0.30;;
63005;SDS011;53704;52.532;6.426;2024-03-02T04:54:07;3.20;;;0.60;;
63005;SDS011;53704;52.532;6.426;2024-03-02T04:56:33;1.40;;;0.52;;
63005;SDS011;53704;52.532;6.426;2024-03-02T04:59:09;0.38;;;0.38;;
63005;SDS011;53704;52.532;6.426;2024-03-02T05:01:35;2.72;;;0.60;;
63005;SDS011;53704;52.532;6.426;2024-03-02T05:04:01;0.60;;;0.60;;
63005;SDS011;53704;52.532;6.426;2024-03-02T05:06:26;1.10;;;0.40;;
63005;SDS011;53704;52.532;6.426;2024-03-02T05:08:51;0.32;;;0.30;;
63005;SDS011;53704;52.532;6.426;2024-03-02T05:11:17;0.47;;;0.32;;
63005;SDS011;53704;52.532;6.426;2024-03-02T05:14:14;2.20;;;0.50;;
63005;SDS011;53704;52.532;6.426;2024-03-02T05:16:39;0.30;;;0.30;;
63005;SDS011;53704;52.532;6.426;2024-03-02T05:19:06;2.88;;;0.60;;
63005;SDS011;53704;52.532;6.426;2024-03-02T05:21:32;0.75;;;0.40;;
63005;SDS011;53704;52.532;6.426;2024-03-02T05:23:59;2.95;;;0.30;;
63005;SDS011;53704;52.532;6.426;2024-03-02T05:26:24;1.73;;;0.90;;
63005;SDS011;53704;52.532;6.426;2024-03-02T05:28:50;0.40;;;0.40;;
63005;SDS011;53704;52.532;6.426;2024-03-02T05:31:15;0.50;;;0.40;;
63005;SDS011;53704;52.532;6.426;2024-03-02T05:33:41;2.03;;;0.30;;
63005;SDS011;53704;52.532;6.426;2024-03-02T05:36:07;0.90;;;0.47;;
63005;SDS011;53704;52.532;6.426;2024-03-02T05:38:36;2.17;;;0.40;;
63005;SDS011;53704;52.532;6.426;2024-03-02T05:41:02;2.25;;;0.40;;
63005;SDS011;53704;52.532;6.426;2024-03-02T05:43:28;0.75;;;0.30;;
63005;SDS011;53704;52.532;6.426;2024-03-02T05:45:54;0.20;;;0.20;;
63005;SDS011;53704;52.532;6.426;2024-03-02T05:48:19;0.63;;;0.30;;
63005;SDS011;53704;52.532;6.426;2024-03-02T05:50:44;0.30;;;0.30;;
63005;SDS011;53704;52.532;6.426;2024-03-02T05:53:10;0.28;;;0.20;;
63005;SDS011;53704;52.532;6.426;2024-03-02T05:55:35;0.30;;;0.30;;
63005;SDS011;53704;52.532;6.426;2024-03-02T05:58:01;1.70;;;0.60;;
63005;SDS011;53704;52.532;6.426;2024-03-02T06:00:32;0.30;;;0.30;;
63005;SDS011;53704;52.532;6.426;2024-03-02T06:02:58;0.73;;;0.40;;
63005;SDS011;53704;52.532;6.426;2024-03-02T06:05:23;0.43;;;0.40;;
63005;SDS011;53704;52.532;6.426;2024-03-02T06:07:49;0.40;;;0.32;;
63005;SDS011;53704;52.532;6.426;2024-03-02T06:10:15;0.75;;;0.22;;
63005;SDS011;53704;52.532;6.426;2024-03-02T06:12:41;0.80;;;0.32;;
63005;SDS011;53704;52.532;6.426;2024-03-02T06:15:07;0.52;;;0.40;;
63005;SDS011;53704;52.532;6.426;2024-03-02T06:17:34;1.38;;;0.13;;
63005;SDS011;53704;52.532;6.426;2024-03-02T06:20:00;0.32;;;0.30;;
63005;SDS011;53704;52.532;6.426;2024-03-02T06:22:26;1.65;;;0.38;;
63005;SDS011;53704;52.532;6.426;2024-03-02T06:24:51;0.20;;;0.20;;
63005;SDS011;53704;52.532;6.426;2024-03-02T06:27:17;0.30;;;0.30;;
63005;SDS011;53704;52.532;6.426;2024-03-02T06:29:42;0.32;;;0.32;;
63005;SDS011;53704;52.532;6.426;2024-03-02T06:32:08;1.67;;;0.40;;
63005;SDS011;53704;52.532;6.426;2024-03-02T06:34:33;3.47;;;0.55;;
63005;SDS011;53704;52.532;6.426;2024-03-02T06:36:58;0.30;;;0.30;;
63005;SDS011;53704;52.532;6.426;2024-03-02T06:39:24;0.32;;;0.30;;
63005;SDS011;53704;52.532;6.426;2024-03-02T06:41:50;4.10;;;0.55;;
63005;SDS011;53704;52.532;6.426;2024-03-02T06:44:16;1.90;;;0.20;;
63005;SDS011;53704;52.532;6.426;2024-03-02T06:46:41;0.35;;;0.35;;
63005;SDS011;53704;52.532;6.426;2024-03-02T06:49:07;0.30;;;0.30;;
63005;SDS011;53704;52.532;6.426;2024-03-02T06:51:33;2.25;;;0.40;;
63005;SDS011;53704;52.532;6.426;2024-03-02T06:53:59;0.43;;;0.40;;
63005;SDS011;53704;52.532;6.426;2024-03-02T06:56:24;0.20;;;0.20;;
63005;SDS011;53704;52.532;6.426;2024-03-02T06:58:49;1.52;;;0.20;;
63005;SDS011;53704;52.532;6.426;2024-03-02T07:01:15;0.60;;;0.60;;
63005;SDS011;53704;52.532;6.426;2024-03-02T07:03:40;0.52;;;0.38;;
63005;SDS011;53704;52.532;6.426;2024-03-02T07:06:06;0.45;;;0.45;;
63005;SDS011;53704;52.532;6.426;2024-03-02T07:08:31;0.35;;;0.30;;
63005;SDS011;53704;52.532;6.426;2024-03-02T07:10:56;3.45;;;0.40;;
63005;SDS011;53704;52.532;6.426;2024-03-02T07:13:22;0.28;;;0.25;;
63005;SDS011;53704;52.532;6.426;2024-03-02T07:15:48;1.10;;;0.52;;
63005;SDS011;53704;52.532;6.426;2024-03-02T07:18:33;0.75;;;0.30;;
63005;SDS011;53704;52.532;6.426;2024-03-02T07:21:00;1.20;;;1.10;;
63005;SDS011;53704;52.532;6.426;2024-03-02T07:23:29;1.00;;;0.38;;
63005;SDS011;53704;52.532;6.426;2024-03-02T07:25:55;0.60;;;0.40;;
63005;SDS011;53704;52.532;6.426;2024-03-02T07:28:22;5.05;;;0.75;;
63005;SDS011;53704;52.532;6.426;2024-03-02T07:30:57;0.40;;;0.32;;
63005;SDS011;53704;52.532;6.426;2024-03-02T07:33:23;0.30;;;0.25;;
63005;SDS011;53704;52.532;6.426;2024-03-02T07:35:49;0.43;;;0.40;;
63005;SDS011;53704;52.532;6.426;2024-03-02T07:38:14;1.08;;;0.70;;
63005;SDS011;53704;52.532;6.426;2024-03-02T07:40:40;0.93;;;0.22;;
63005;SDS011;53704;52.532;6.426;2024-03-02T07:43:05;1.50;;;0.52;;
63005;SDS011;53704;52.532;6.426;2024-03-02T07:45:30;0.43;;;0.43;;
63005;SDS011;53704;52.532;6.426;2024-03-02T07:47:56;0.40;;;0.30;;
63005;SDS011;53704;52.532;6.426;2024-03-02T07:50:22;1.63;;;0.38;;
63005;SDS011;53704;52.532;6.426;2024-03-02T07:52:47;2.50;;;0.40;;
63005;SDS011;53704;52.532;6.426;2024-03-02T07:55:13;0.80;;;0.38;;
63005;SDS011;53704;52.532;6.426;2024-03-02T07:57:38;1.35;;;0.30;;
63005;SDS011;53704;52.532;6.426;2024-03-02T08:00:05;2.58;;;0.25;;
63005;SDS011;53704;52.532;6.426;2024-03-02T08:02:31;0.98;;;0.80;;
63005;SDS011;53704;52.532;6.426;2024-03-02T08:04:56;1.35;;;0.50;;
63005;SDS011;53704;52.532;6.426;2024-03-02T08:07:22;0.20;;;0.20;;
63005;SDS011;53704;52.532;6.426;2024-03-02T08:09:47;1.08;;;0.50;;
63005;SDS011;53704;52.532;6.426;2024-03-02T08:12:13;0.65;;;0.57;;
63005;SDS011;53704;52.532;6.426;2024-03-02T08:14:38;0.40;;;0.40;;
63005;SDS011;53704;52.532;6.426;2024-03-02T08:17:03;1.30;;;0.50;;
63005;SDS011;53704;52.532;6.426;2024-03-02T08:19:34;0.55;;;0.22;;
63005;SDS011;53704;52.532;6.426;2024-03-02T08:22:00;2.95;;;0.65;;
63005;SDS011;53704;52.532;6.426;2024-03-02T08:24:26;1.00;;;0.40;;
63005;SDS011;53704;52.532;6.426;2024-03-02T08:26:51;0.28;;;0.28;;
63005;SDS011;53704;52.532;6.426;2024-03-02T08:29:17;0.60;;;0.60;;
63005;SDS011;53704;52.532;6.426;2024-03-02T08:31:43;1.40;;;0.68;;
63005;SDS011;53704;52.532;6.426;2024-03-02T08:34:08;1.55;;;0.60;;
63005;SDS011;53704;52.532;6.426;2024-03-02T08:36:34;1.45;;;0.57;;
63005;SDS011;53704;52.532;6.426;2024-03-02T08:38:59;0.20;;;0.20;;
63005;SDS011;53704;52.532;6.426;2024-03-02T08:41:25;0.50;;;0.40;;
63005;SDS011;53704;52.532;6.426;2024-03-02T08:43:50;1.02;;;0.43;;
63005;SDS011;53704;52.532;6.426;2024-03-02T08:46:16;2.83;;;0.73;;
63005;SDS011;53704;52.532;6.426;2024-03-02T08:48:41;2.08;;;0.60;;
63005;SDS011;53704;52.532;6.426;2024-03-02T08:51:07;0.85;;;0.60;;
63005;SDS011;53704;52.532;6.426;2024-03-02T08:53:35;2.03;;;0.45;;
63005;SDS011;53704;52.532;6.426;2024-03-02T08:56:00;0.50;;;0.30;;
63005;SDS011;53704;52.532;6.426;2024-03-02T08:58:26;0.68;;;0.40;;
63005;SDS011;53704;52.532;6.426;2024-03-02T09:00:51;5.07;;;0.65;;
63005;SDS011;53704;52.532;6.426;2024-03-02T09:03:17;3.53;;;0.47;;
63005;SDS011;53704;52.532;6.426;2024-03-02T09:05:42;0.98;;;0.63;;
63005;SDS011;53704;52.532;6.426;2024-03-02T09:08:08;3.47;;;0.70;;
63005;SDS011;53704;52.532;6.426;2024-03-02T09:10:33;0.77;;;0.50;;
63005;SDS011;53704;52.532;6.426;2024-03-02T09:12:58;2.85;;;0.70;;
63005;SDS011;53704;52.532;6.426;2024-03-02T09:15:24;2.60;;;0.57;;
63005;SDS011;53704;52.532;6.426;2024-03-02T09:17:50;2.92;;;0.70;;
63005;SDS011;53704;52.532;6.426;2024-03-02T09:20:15;0.52;;;0.50;;
63005;SDS011;53704;52.532;6.426;2024-03-02T09:22:41;5.80;;;0.60;;
63005;SDS011;53704;52.532;6.426;2024-03-02T09:25:07;1.83;;;0.77;;
63005;SDS011;53704;52.532;6.426;2024-03-02T09:27:35;2.15;;;0.70;;
63005;SDS011;53704;52.532;6.426;2024-03-02T09:30:03;1.92;;;0.68;;
63005;SDS011;53704;52.532;6.426;2024-03-02T09:32:30;2.05;;;0.68;;
63005;SDS011;53704;52.532;6.426;2024-03-02T09:34:56;1.60;;;0.50;;
63005;SDS011;53704;52.532;6.426;2024-03-02T09:37:21;5.78;;;0.82;;
63005;SDS011;53704;52.532;6.426;2024-03-02T09:39:46;1.75;;;0.70;;
63005;SDS011;53704;52.532;6.426;2024-03-02T09:42:12;4.32;;;0.82;;
63005;SDS011;53704;52.532;6.426;2024-03-02T09:44:38;4.10;;;0.80;;
63005;SDS011;53704;52.532;6.426;2024-03-02T09:47:04;6.75;;;0.77;;
63005;SDS011;53704;52.532;6.426;2024-03-02T09:49:30;2.65;;;0.70;;
63005;SDS011;53704;52.532;6.426;2024-03-02T09:51:56;0.55;;;0.40;;
63005;SDS011;53704;52.532;6.426;2024-03-02T09:54:22;1.33;;;0.80;;
63005;SDS011;53704;52.532;6.426;2024-03-02T09:56:47;2.92;;;0.45;;
63005;SDS011;53704;52.532;6.426;2024-03-02T09:59:13;4.82;;;0.73;;
63005;SDS011;53704;52.532;6.426;2024-03-02T10:01:55;6.95;;;0.80;;
63005;SDS011;53704;52.532;6.426;2024-03-02T10:04:21;4.68;;;0.85;;
63005;SDS011;53704;52.532;6.426;2024-03-02T10:06:47;3.83;;;0.77;;
63005;SDS011;53704;52.532;6.426;2024-03-02T10:09:13;3.92;;;0.68;;
63005;SDS011;53704;52.532;6.426;2024-03-02T10:11:52;1.77;;;0.60;;
63005;SDS011;53704;52.532;6.426;2024-03-02T10:14:18;5.38;;;0.90;;
63005;SDS011;53704;52.532;6.426;2024-03-02T10:16:43;1.83;;;0.90;;
63005;SDS011;53704;52.532;6.426;2024-03-02T10:21:52;6.35;;;1.13;;
63005;SDS011;53704;52.532;6.426;2024-03-02T10:24:19;2.30;;;0.90;;
63005;SDS011;53704;52.532;6.426;2024-03-02T10:26:46;2.00;;;0.70;;
63005;SDS011;53704;52.532;6.426;2024-03-02T10:29:12;3.28;;;0.70;;
63005;SDS011;53704;52.532;6.426;2024-03-02T10:31:38;3.70;;;0.85;;
63005;SDS011;53704;52.532;6.426;2024-03-02T10:34:06;1.50;;;0.60;;
63005;SDS011;53704;52.532;6.426;2024-03-02T10:36:35;1.35;;;0.70;;
63005;SDS011;53704;52.532;6.426;2024-03-02T10:39:02;2.88;;;0.80;;
63005;SDS011;53704;52.532;6.426;2024-03-02T10:41:29;1.80;;;0.60;;
63005;SDS011;53704;52.532;6.426;2024-03-02T10:43:59;2.15;;;0.80;;
63005;SDS011;53704;52.532;6.426;2024-03-02T10:46:27;3.22;;;0.95;;
63005;SDS011;53704;52.532;6.426;2024-03-02T10:48:54;2.67;;;0.60;;
63005;SDS011;53704;52.532;6.426;2024-03-02T10:51:23;1.95;;;0.70;;
63005;SDS011;53704;52.532;6.426;2024-03-02T10:53:49;2.50;;;0.77;;
63005;SDS011;53704;52.532;6.426;2024-03-02T10:56:16;5.60;;;0.90;;
63005;SDS011;53704;52.532;6.426;2024-03-02T10:58:52;0.95;;;0.50;;
63005;SDS011;53704;52.532;6.426;2024-03-02T11:01:26;2.17;;;0.70;;
63005;SDS011;53704;52.532;6.426;2024-03-02T11:03:54;1.45;;;0.70;;
63005;SDS011;53704;52.532;6.426;2024-03-02T11:06:19;6.95;;;0.70;;
63005;SDS011;53704;52.532;6.426;2024-03-02T11:08:47;4.93;;;0.95;;
63005;SDS011;53704;52.532;6.426;2024-03-02T11:11:15;1.38;;;0.70;;
63005;SDS011;53704;52.532;6.426;2024-03-02T11:13:48;4.45;;;0.88;;
63005;SDS011;53704;52.532;6.426;2024-03-02T11:16:25;4.43;;;1.00;;
63005;SDS011;53704;52.532;6.426;2024-03-02T11:19:00;3.28;;;0.93;;
63005;SDS011;53704;52.532;6.426;2024-03-02T11:21:35;2.45;;;0.85;;
63005;SDS011;53704;52.532;6.426;2024-03-02T11:26:49;1.33;;;0.70;;
63005;SDS011;53704;52.532;6.426;2024-03-02T11:32:22;2.90;;;1.10;;
63005;SDS011;53704;52.532;6.426;2024-03-02T11:34:51;2.08;;;0.90;;
63005;SDS011;53704;52.532;6.426;2024-03-02T11:37:20;1.63;;;0.80;;
63005;SDS011;53704;52.532;6.426;2024-03-02T11:39:46;1.75;;;1.00;;
63005;SDS011;53704;52.532;6.426;2024-03-02T11:42:14;2.38;;;0.75;;
63005;SDS011;53704;52.532;6.426;2024-03-02T11:44:41;1.50;;;0.88;;
63005;SDS011;53704;52.532;6.426;2024-03-02T11:47:10;2.55;;;0.80;;
63005;SDS011;53704;52.532;6.426;2024-03-02T11:49:40;1.08;;;0.80;;
63005;SDS011;53704;52.532;6.426;2024-03-02T11:52:08;1.92;;;0.80;;
63005;SDS011;53704;52.532;6.426;2024-03-02T11:54:35;2.28;;;0.80;;
63005;SDS011;53704;52.532;6.426;2024-03-02T11:57:06;4.65;;;1.05;;
63005;SDS011;53704;52.532;6.426;2024-03-02T11:59:32;4.72;;;0.88;;
63005;SDS011;53704;52.532;6.426;2024-03-02T12:01:58;6.68;;;1.35;;
63005;SDS011;53704;52.532;6.426;2024-03-02T12:04:24;2.92;;;0.90;;
63005;SDS011;53704;52.532;6.426;2024-03-02T12:06:54;2.20;;;1.02;;
63005;SDS011;53704;52.532;6.426;2024-03-02T12:09:21;4.63;;;1.10;;
63005;SDS011;53704;52.532;6.426;2024-03-02T12:11:47;3.20;;;1.02;;
63005;SDS011;53704;52.532;6.426;2024-03-02T12:14:13;1.77;;;0.82;;
63005;SDS011;53704;52.532;6.426;2024-03-02T12:16:39;1.88;;;0.90;;
63005;SDS011;53704;52.532;6.426;2024-03-02T12:19:11;1.23;;;0.88;;
63005;SDS011;53704;52.532;6.426;2024-03-02T12:21:36;1.38;;;0.88;;
63005;SDS011;53704;52.532;6.426;2024-03-02T12:24:03;2.15;;;0.82;;
63005;SDS011;53704;52.532;6.426;2024-03-02T12:26:28;2.47;;;0.98;;
63005;SDS011;53704;52.532;6.426;2024-03-02T12:28:54;2.28;;;0.98;;
63005;SDS011;53704;52.532;6.426;2024-03-02T12:31:20;2.10;;;1.10;;
63005;SDS011;53704;52.532;6.426;2024-03-02T12:33:46;2.80;;;1.17;;
63005;SDS011;53704;52.532;6.426;2024-03-02T12:36:13;1.48;;;1.00;;
63005;SDS011;53704;52.532;6.426;2024-03-02T12:38:43;1.55;;;0.90;;
63005;SDS011;53704;52.532;6.426;2024-03-02T12:41:09;3.55;;;1.17;;
63005;SDS011;53704;52.532;6.426;2024-03-02T12:43:34;3.28;;;1.15;;
63005;SDS011;53704;52.532;6.426;2024-03-02T12:46:02;0.73;;;0.63;;
63005;SDS011;53704;52.532;6.426;2024-03-02T12:48:28;5.05;;;1.42;;
63005;SDS011;53704;52.532;6.426;2024-03-02T12:50:54;11.05;;;1.48;;
63005;SDS011;53704;52.532;6.426;2024-03-02T12:53:21;2.60;;;0.73;;
63005;SDS011;53704;52.532;6.426;2024-03-02T12:55:50;2.13;;;0.90;;
63005;SDS011;53704;52.532;6.426;2024-03-02T12:58:19;2.47;;;1.02;;
63005;SDS011;53704;52.532;6.426;2024-03-02T13:00:49;1.90;;;1.00;;
63005;SDS011;53704;52.532;6.426;2024-03-02T13:03:14;4.88;;;1.20;;
63005;SDS011;53704;52.532;6.426;2024-03-02T13:05:47;1.02;;;1.02;;
63005;SDS011;53704;52.532;6.426;2024-03-02T13:08:14;1.02;;;0.93;;
63005;SDS011;53704;52.532;6.426;2024-03-02T13:10:40;3.15;;;1.27;;
63005;SDS011;53704;52.532;6.426;2024-03-02T13:13:08;1.90;;;1.23;;
63005;SDS011;53704;52.532;6.426;2024-03-02T13:15:39;7.35;;;1.20;;
63005;SDS011;53704;52.532;6.426;2024-03-02T13:18:07;1.67;;;1.23;;
63005;SDS011;53704;52.532;6.426;2024-03-02T13:20:33;4.75;;;1.10;;
63005;SDS011;53704;52.532;6.426;2024-03-02T13:22:59;1.50;;;1.33;;
63005;SDS011;53704;52.532;6.426;2024-03-02T13:25:25;1.67;;;1.40;;
63005;SDS011;53704;52.532;6.426;2024-03-02T13:27:51;1.30;;;1.20;;
63005;SDS011;53704;52.532;6.426;2024-03-02T13:30:20;1.55;;;1.45;;
63005;SDS011;53704;52.532;6.426;2024-03-02T13:32:45;9.45;;;1.63;;
63005;SDS011;53704;52.532;6.426;2024-03-02T13:35:11;6.95;;;1.77;;
63005;SDS011;53704;52.532;6.426;2024-03-02T13:37:36;1.75;;;1.33;;
63005;SDS011;53704;52.532;6.426;2024-03-02T13:40:02;1.60;;;1.42;;
63005;SDS011;53704;52.532;6.426;2024-03-02T13:42:29;2.60;;;1.77;;
63005;SDS011;53704;52.532;6.426;2024-03-02T13:44:55;4.20;;;1.95;;
63005;SDS011;53704;52.532;6.426;2024-03-02T13:47:22;2.15;;;1.63;;
63005;SDS011;53704;52.532;6.426;2024-03-02T13:49:47;5.25;;;1.83;;
63005;SDS011;53704;52.532;6.426;2024-03-02T13:52:14;5.32;;;2.20;;
63005;SDS011;53704;52.532;6.426;2024-03-02T13:54:43;4.60;;;2.10;;
63005;SDS011;53704;52.532;6.426;2024-03-02T13:57:10;3.13;;;2.08;;
63005;SDS011;53704;52.532;6.426;2024-03-02T13:59:37;2.40;;;2.20;;
63005;SDS011;53704;52.532;6.426;2024-03-02T14:02:04;2.38;;;2.17;;
63005;SDS011;53704;52.532;6.426;2024-03-02T14:04:31;2.58;;;2.30;;
63005;SDS011;53704;52.532;6.426;2024-03-02T14:06:58;2.40;;;2.20;;
63005;SDS011;53704;52.532;6.426;2024-03-02T14:09:24;4.78;;;1.67;;
63005;SDS011;53704;52.532;6.426;2024-03-02T14:11:50;6.70;;;1.88;;
63005;SDS011;53704;52.532;6.426;2024-03-02T14:14:16;3.97;;;2.05;;
63005;SDS011;53704;52.532;6.426;2024-03-02T14:16:42;1.90;;;1.75;;
63005;SDS011;53704;52.532;6.426;2024-03-02T14:19:09;2.33;;;1.88;;
63005;SDS011;53704;52.532;6.426;2024-03-02T14:21:34;4.82;;;1.48;;
63005;SDS011;53704;52.532;6.426;2024-03-02T14:24:01;4.95;;;1.88;;
63005;SDS011;53704;52.532;6.426;2024-03-02T14:26:27;3.08;;;1.48;;
63005;SDS011;53704;52.532;6.426;2024-03-02T14:28:53;6.40;;;1.70;;
63005;SDS011;53704;52.532;6.426;2024-03-02T14:31:19;1.95;;;1.40;;
63005;SDS011;53704;52.532;6.426;2024-03-02T14:33:45;4.53;;;1.58;;
63005;SDS011;53704;52.532;6.426;2024-03-02T14:36:11;1.70;;;1.60;;
63005;SDS011;53704;52.532;6.426;2024-03-02T14:38:37;2.33;;;1.23;;
63005;SDS011;53704;52.532;6.426;2024-03-02T14:41:03;2.05;;;1.50;;
63005;SDS011;53704;52.532;6.426;2024-03-02T14:43:29;2.58;;;1.70;;
63005;SDS011;53704;52.532;6.426;2024-03-02T14:45:55;2.38;;;1.50;;
63005;SDS011;53704;52.532;6.426;2024-03-02T14:48:21;1.38;;;1.30;;
63005;SDS011;53704;52.532;6.426;2024-03-02T14:50:47;3.22;;;1.38;;
63005;SDS011;53704;52.532;6.426;2024-03-02T14:53:13;1.60;;;1.45;;
63005;SDS011;53704;52.532;6.426;2024-03-02T14:55:38;3.60;;;1.30;;